sensor_id;sensor_type;location;lat;lon;timestamp;temperature;humidity
25732;DHT22;13585;50.864;4.406;2022-08-01T00:00:12;28.30;52.70
25732;DHT22;13585;50.864;4.406;2022-08-01T00:02:39;28.40;52.80
25732;DHT22;13585;50.864;4.406;2022-08-01T00:05:06;28.40;52.80
25732;DHT22;13585;50.864;4.406;2022-08-01T00:07:35;28.40;52.90
25732;DHT22;13585;50.864;4.406;2022-08-01T00:10:03;28.30;52.80
25732;DHT22;13585;50.864;4.406;2022-08-01T00:12:30;28.30;52.80
25732;DHT22;13585;50.864;4.406;2022-08-01T00:14:55;28.30;52.90
25732;DHT22;13585;50.864;4.406;2022-08-01T00:17:21;28.40;53.00
25732;DHT22;13585;50.864;4.406;2022-08-01T00:19:47;28.40;53.10
25732;DHT22;13585;50.864;4.406;2022-08-01T00:22:12;28.30;53.00
25732;DHT22;13585;50.864;4.406;2022-08-01T00:24:38;28.30;53.00
25732;DHT22;13585;50.864;4.406;2022-08-01T00:27:04;28.30;53.00
25732;DHT22;13585;50.864;4.406;2022-08-01T00:29:29;28.30;53.00
25732;DHT22;13585;50.864;4.406;2022-08-01T00:31:55;28.30;53.00
25732;DHT22;13585;50.864;4.406;2022-08-01T00:34:21;28.30;53.00
25732;DHT22;13585;50.864;4.406;2022-08-01T00:36:46;28.30;53.00
25732;DHT22;13585;50.864;4.406;2022-08-01T00:39:12;28.40;53.00
25732;DHT22;13585;50.864;4.406;2022-08-01T00:41:38;28.30;52.90
25732;DHT22;13585;50.864;4.406;2022-08-01T00:44:04;28.30;52.90
25732;DHT22;13585;50.864;4.406;2022-08-01T00:46:31;28.30;52.90
25732;DHT22;13585;50.864;4.406;2022-08-01T00:48:57;28.30;52.90
25732;DHT22;13585;50.864;4.406;2022-08-01T00:51:23;28.30;52.90
25732;DHT22;13585;50.864;4.406;2022-08-01T00:53:50;28.30;53.00
25732;DHT22;13585;50.864;4.406;2022-08-01T00:56:16;28.30;53.00
25732;DHT22;13585;50.864;4.406;2022-08-01T00:58:42;28.30;53.00
25732;DHT22;13585;50.864;4.406;2022-08-01T01:01:09;28.30;53.70
25732;DHT22;13585;50.864;4.406;2022-08-01T01:03:35;28.30;53.00
25732;DHT22;13585;50.864;4.406;2022-08-01T01:08:34;28.30;52.90
25732;DHT22;13585;50.864;4.406;2022-08-01T01:11:03;28.30;53.00
25732;DHT22;13585;50.864;4.406;2022-08-01T01:13:43;28.40;52.90
25732;DHT22;13585;50.864;4.406;2022-08-01T01:16:13;28.40;52.80
25732;DHT22;13585;50.864;4.406;2022-08-01T01:24:26;28.30;53.00
25732;DHT22;13585;50.864;4.406;2022-08-01T01:27:21;28.30;53.00
25732;DHT22;13585;50.864;4.406;2022-08-01T01:29:54;28.30;52.90
25732;DHT22;13585;50.864;4.406;2022-08-01T01:34:54;28.30;53.00
25732;DHT22;13585;50.864;4.406;2022-08-01T01:37:21;28.30;53.10
25732;DHT22;13585;50.864;4.406;2022-08-01T01:39:51;28.30;53.10
25732;DHT22;13585;50.864;4.406;2022-08-01T01:42:18;28.30;53.10
25732;DHT22;13585;50.864;4.406;2022-08-01T01:44:48;28.20;53.10
25732;DHT22;13585;50.864;4.406;2022-08-01T01:47:16;28.20;53.10
25732;DHT22;13585;50.864;4.406;2022-08-01T01:49:44;28.30;53.10
25732;DHT22;13585;50.864;4.406;2022-08-01T01:52:12;28.30;54.00
25732;DHT22;13585;50.864;4.406;2022-08-01T01:54:47;28.30;53.20
25732;DHT22;13585;50.864;4.406;2022-08-01T01:57:15;28.30;53.20
25732;DHT22;13585;50.864;4.406;2022-08-01T01:59:42;28.30;53.20
25732;DHT22;13585;50.864;4.406;2022-08-01T02:02:09;28.30;53.20
25732;DHT22;13585;50.864;4.406;2022-08-01T02:04:36;28.30;53.20
25732;DHT22;13585;50.864;4.406;2022-08-01T02:07:04;28.30;53.20
25732;DHT22;13585;50.864;4.406;2022-08-01T02:09:31;28.30;53.20
25732;DHT22;13585;50.864;4.406;2022-08-01T02:11:59;28.20;53.20
25732;DHT22;13585;50.864;4.406;2022-08-01T02:14:26;28.30;53.20
25732;DHT22;13585;50.864;4.406;2022-08-01T02:16:55;28.30;53.20
25732;DHT22;13585;50.864;4.406;2022-08-01T02:19:21;28.30;53.30
25732;DHT22;13585;50.864;4.406;2022-08-01T02:22:04;28.30;53.60
25732;DHT22;13585;50.864;4.406;2022-08-01T02:24:36;28.20;53.60
25732;DHT22;13585;50.864;4.406;2022-08-01T02:27:04;28.20;53.60
25732;DHT22;13585;50.864;4.406;2022-08-01T02:30:01;28.40;53.60
25732;DHT22;13585;50.864;4.406;2022-08-01T02:32:49;28.30;53.70
25732;DHT22;13585;50.864;4.406;2022-08-01T02:35:28;28.30;53.90
25732;DHT22;13585;50.864;4.406;2022-08-01T02:37:55;28.20;53.70
25732;DHT22;13585;50.864;4.406;2022-08-01T02:40:22;28.20;53.90
25732;DHT22;13585;50.864;4.406;2022-08-01T02:42:50;28.20;54.00
25732;DHT22;13585;50.864;4.406;2022-08-01T02:45:22;28.20;53.90
25732;DHT22;13585;50.864;4.406;2022-08-01T02:47:49;28.20;53.90
25732;DHT22;13585;50.864;4.406;2022-08-01T02:50:17;28.20;53.80
25732;DHT22;13585;50.864;4.406;2022-08-01T02:52:47;28.20;53.80
25732;DHT22;13585;50.864;4.406;2022-08-01T02:55:14;28.20;53.90
25732;DHT22;13585;50.864;4.406;2022-08-01T02:57:43;28.20;53.90
25732;DHT22;13585;50.864;4.406;2022-08-01T03:00:10;28.20;54.80
25732;DHT22;13585;50.864;4.406;2022-08-01T03:02:36;28.20;54.20
25732;DHT22;13585;50.864;4.406;2022-08-01T03:05:03;28.20;54.30
25732;DHT22;13585;50.864;4.406;2022-08-01T03:07:29;28.20;54.40
25732;DHT22;13585;50.864;4.406;2022-08-01T03:09:56;28.20;54.40
25732;DHT22;13585;50.864;4.406;2022-08-01T03:12:25;28.20;54.40
25732;DHT22;13585;50.864;4.406;2022-08-01T03:14:54;28.20;54.20
25732;DHT22;13585;50.864;4.406;2022-08-01T03:17:24;28.20;54.30
25732;DHT22;13585;50.864;4.406;2022-08-01T03:19:51;28.20;54.40
25732;DHT22;13585;50.864;4.406;2022-08-01T03:22:18;28.20;54.50
25732;DHT22;13585;50.864;4.406;2022-08-01T03:24:50;28.20;54.60
25732;DHT22;13585;50.864;4.406;2022-08-01T03:27:19;28.20;54.50
25732;DHT22;13585;50.864;4.406;2022-08-01T03:29:45;28.20;54.60
25732;DHT22;13585;50.864;4.406;2022-08-01T03:32:13;28.20;54.60
25732;DHT22;13585;50.864;4.406;2022-08-01T03:34:39;28.20;54.60
25732;DHT22;13585;50.864;4.406;2022-08-01T03:37:18;28.20;54.60
25732;DHT22;13585;50.864;4.406;2022-08-01T03:39:50;28.20;54.60
25732;DHT22;13585;50.864;4.406;2022-08-01T03:42:20;28.20;54.60
25732;DHT22;13585;50.864;4.406;2022-08-01T03:44:54;28.20;54.60
25732;DHT22;13585;50.864;4.406;2022-08-01T03:47:22;28.20;54.80
25732;DHT22;13585;50.864;4.406;2022-08-01T03:49:51;28.20;54.80
25732;DHT22;13585;50.864;4.406;2022-08-01T03:52:18;28.20;54.70
25732;DHT22;13585;50.864;4.406;2022-08-01T03:54:48;28.20;54.90
25732;DHT22;13585;50.864;4.406;2022-08-01T03:57:15;28.20;55.10
25732;DHT22;13585;50.864;4.406;2022-08-01T03:59:41;28.20;55.20
25732;DHT22;13585;50.864;4.406;2022-08-01T04:02:07;28.20;55.30
25732;DHT22;13585;50.864;4.406;2022-08-01T04:04:33;28.10;55.30
25732;DHT22;13585;50.864;4.406;2022-08-01T04:06:59;28.10;55.50
25732;DHT22;13585;50.864;4.406;2022-08-01T04:09:30;28.20;55.50
25732;DHT22;13585;50.864;4.406;2022-08-01T04:11:57;28.20;55.60
25732;DHT22;13585;50.864;4.406;2022-08-01T04:14:23;28.10;55.60
25732;DHT22;13585;50.864;4.406;2022-08-01T04:16:49;28.00;55.60
25732;DHT22;13585;50.864;4.406;2022-08-01T04:19:14;28.20;55.90
25732;DHT22;13585;50.864;4.406;2022-08-01T04:21:40;28.10;55.80
25732;DHT22;13585;50.864;4.406;2022-08-01T04:24:17;28.20;56.00
25732;DHT22;13585;50.864;4.406;2022-08-01T04:26:45;28.10;56.00
25732;DHT22;13585;50.864;4.406;2022-08-01T04:29:12;28.10;56.00
25732;DHT22;13585;50.864;4.406;2022-08-01T04:31:41;28.10;56.10
25732;DHT22;13585;50.864;4.406;2022-08-01T04:34:11;28.10;56.20
25732;DHT22;13585;50.864;4.406;2022-08-01T04:36:38;28.10;56.30
25732;DHT22;13585;50.864;4.406;2022-08-01T04:39:08;28.10;56.30
25732;DHT22;13585;50.864;4.406;2022-08-01T04:41:34;28.10;56.40
25732;DHT22;13585;50.864;4.406;2022-08-01T04:44:01;28.10;56.40
25732;DHT22;13585;50.864;4.406;2022-08-01T04:46:28;28.10;56.50
25732;DHT22;13585;50.864;4.406;2022-08-01T04:48:55;28.10;56.50
25732;DHT22;13585;50.864;4.406;2022-08-01T04:51:21;28.10;56.50
25732;DHT22;13585;50.864;4.406;2022-08-01T04:53:48;28.10;56.50
25732;DHT22;13585;50.864;4.406;2022-08-01T04:56:16;28.10;56.60
25732;DHT22;13585;50.864;4.406;2022-08-01T04:58:43;28.10;56.60
25732;DHT22;13585;50.864;4.406;2022-08-01T05:01:10;28.10;56.60
25732;DHT22;13585;50.864;4.406;2022-08-01T05:03:36;28.10;56.70
25732;DHT22;13585;50.864;4.406;2022-08-01T05:06:02;28.10;56.70
25732;DHT22;13585;50.864;4.406;2022-08-01T05:08:27;28.10;56.70
25732;DHT22;13585;50.864;4.406;2022-08-01T05:10:53;28.10;56.70
25732;DHT22;13585;50.864;4.406;2022-08-01T05:13:19;28.10;56.70
25732;DHT22;13585;50.864;4.406;2022-08-01T05:15:45;28.10;56.70
25732;DHT22;13585;50.864;4.406;2022-08-01T05:18:10;28.00;56.60
25732;DHT22;13585;50.864;4.406;2022-08-01T05:20:36;28.10;56.70
25732;DHT22;13585;50.864;4.406;2022-08-01T05:23:05;28.10;56.20
25732;DHT22;13585;50.864;4.406;2022-08-01T05:25:31;28.10;56.70
25732;DHT22;13585;50.864;4.406;2022-08-01T05:27:57;28.00;56.60
25732;DHT22;13585;50.864;4.406;2022-08-01T05:30:23;28.00;56.60
25732;DHT22;13585;50.864;4.406;2022-08-01T05:32:48;28.00;56.60
25732;DHT22;13585;50.864;4.406;2022-08-01T05:35:14;28.00;56.60
25732;DHT22;13585;50.864;4.406;2022-08-01T05:37:40;28.00;56.50
25732;DHT22;13585;50.864;4.406;2022-08-01T05:40:06;28.00;56.50
25732;DHT22;13585;50.864;4.406;2022-08-01T05:42:31;28.00;56.50
25732;DHT22;13585;50.864;4.406;2022-08-01T05:44:57;28.00;56.50
25732;DHT22;13585;50.864;4.406;2022-08-01T05:47:23;28.00;56.50
25732;DHT22;13585;50.864;4.406;2022-08-01T05:49:49;28.00;56.50
25732;DHT22;13585;50.864;4.406;2022-08-01T05:52:15;28.00;56.50
25732;DHT22;13585;50.864;4.406;2022-08-01T05:54:41;28.00;56.50
25732;DHT22;13585;50.864;4.406;2022-08-01T05:57:06;28.00;56.50
25732;DHT22;13585;50.864;4.406;2022-08-01T05:59:32;28.00;56.50
25732;DHT22;13585;50.864;4.406;2022-08-01T06:01:57;28.00;56.50
25732;DHT22;13585;50.864;4.406;2022-08-01T06:04:23;28.00;57.10
25732;DHT22;13585;50.864;4.406;2022-08-01T06:06:49;28.00;56.50
25732;DHT22;13585;50.864;4.406;2022-08-01T06:09:15;28.00;56.50
25732;DHT22;13585;50.864;4.406;2022-08-01T06:11:40;28.00;56.50
25732;DHT22;13585;50.864;4.406;2022-08-01T06:14:06;28.00;56.50
25732;DHT22;13585;50.864;4.406;2022-08-01T06:16:32;28.00;56.50
25732;DHT22;13585;50.864;4.406;2022-08-01T06:18:57;28.00;56.50
25732;DHT22;13585;50.864;4.406;2022-08-01T06:21:23;27.90;56.40
25732;DHT22;13585;50.864;4.406;2022-08-01T06:23:48;28.00;56.50
25732;DHT22;13585;50.864;4.406;2022-08-01T06:26:20;28.00;56.50
25732;DHT22;13585;50.864;4.406;2022-08-01T06:28:46;27.90;56.40
25732;DHT22;13585;50.864;4.406;2022-08-01T06:31:12;28.00;56.40
25732;DHT22;13585;50.864;4.406;2022-08-01T06:33:39;28.00;56.40
25732;DHT22;13585;50.864;4.406;2022-08-01T06:36:04;28.00;56.40
25732;DHT22;13585;50.864;4.406;2022-08-01T06:38:30;28.00;56.40
25732;DHT22;13585;50.864;4.406;2022-08-01T06:40:56;27.90;56.30
25732;DHT22;13585;50.864;4.406;2022-08-01T06:43:21;28.00;56.40
25732;DHT22;13585;50.864;4.406;2022-08-01T06:45:47;28.00;56.40
25732;DHT22;13585;50.864;4.406;2022-08-01T06:48:13;28.00;56.30
25732;DHT22;13585;50.864;4.406;2022-08-01T06:50:39;28.00;56.30
25732;DHT22;13585;50.864;4.406;2022-08-01T06:53:05;28.00;56.30
25732;DHT22;13585;50.864;4.406;2022-08-01T06:55:31;28.00;56.30
25732;DHT22;13585;50.864;4.406;2022-08-01T06:57:56;28.00;56.20
25732;DHT22;13585;50.864;4.406;2022-08-01T07:00:24;28.00;56.20
25732;DHT22;13585;50.864;4.406;2022-08-01T07:02:54;28.00;56.10
25732;DHT22;13585;50.864;4.406;2022-08-01T07:05:20;28.00;56.10
25732;DHT22;13585;50.864;4.406;2022-08-01T07:07:46;28.00;56.00
25732;DHT22;13585;50.864;4.406;2022-08-01T07:10:12;28.00;56.00
25732;DHT22;13585;50.864;4.406;2022-08-01T07:12:38;28.00;56.00
25732;DHT22;13585;50.864;4.406;2022-08-01T07:15:05;28.00;56.00
25732;DHT22;13585;50.864;4.406;2022-08-01T07:17:31;28.10;55.90
25732;DHT22;13585;50.864;4.406;2022-08-01T07:19:57;28.00;55.70
25732;DHT22;13585;50.864;4.406;2022-08-01T07:22:23;28.10;55.80
25732;DHT22;13585;50.864;4.406;2022-08-01T07:24:48;28.10;55.70
25732;DHT22;13585;50.864;4.406;2022-08-01T07:27:14;28.10;55.70
25732;DHT22;13585;50.864;4.406;2022-08-01T07:29:40;28.10;55.50
25732;DHT22;13585;50.864;4.406;2022-08-01T07:32:05;28.10;55.50
25732;DHT22;13585;50.864;4.406;2022-08-01T07:34:31;28.10;55.60
25732;DHT22;13585;50.864;4.406;2022-08-01T07:36:57;28.10;55.50
25732;DHT22;13585;50.864;4.406;2022-08-01T07:39:22;28.10;55.40
25732;DHT22;13585;50.864;4.406;2022-08-01T07:41:48;28.10;55.40
25732;DHT22;13585;50.864;4.406;2022-08-01T07:44:14;28.10;55.20
25732;DHT22;13585;50.864;4.406;2022-08-01T07:46:39;28.10;55.10
25732;DHT22;13585;50.864;4.406;2022-08-01T07:49:05;28.10;55.00
25732;DHT22;13585;50.864;4.406;2022-08-01T07:51:30;28.10;54.80
25732;DHT22;13585;50.864;4.406;2022-08-01T07:53:56;28.10;54.80
25732;DHT22;13585;50.864;4.406;2022-08-01T07:56:22;28.10;54.80
25732;DHT22;13585;50.864;4.406;2022-08-01T07:58:49;28.10;54.80
25732;DHT22;13585;50.864;4.406;2022-08-01T08:01:15;28.10;54.80
25732;DHT22;13585;50.864;4.406;2022-08-01T08:03:41;28.10;54.80
25732;DHT22;13585;50.864;4.406;2022-08-01T08:06:06;28.20;54.90
25732;DHT22;13585;50.864;4.406;2022-08-01T08:08:32;28.10;54.70
25732;DHT22;13585;50.864;4.406;2022-08-01T08:11:00;28.20;54.70
25732;DHT22;13585;50.864;4.406;2022-08-01T08:13:25;28.10;54.50
25732;DHT22;13585;50.864;4.406;2022-08-01T08:15:51;28.20;54.50
25732;DHT22;13585;50.864;4.406;2022-08-01T08:18:17;28.20;54.40
25732;DHT22;13585;50.864;4.406;2022-08-01T08:20:43;28.20;54.30
25732;DHT22;13585;50.864;4.406;2022-08-01T08:23:09;28.20;54.20
25732;DHT22;13585;50.864;4.406;2022-08-01T08:25:53;28.20;54.20
25732;DHT22;13585;50.864;4.406;2022-08-01T08:28:18;28.20;54.10
25732;DHT22;13585;50.864;4.406;2022-08-01T08:30:44;28.20;54.10
25732;DHT22;13585;50.864;4.406;2022-08-01T08:33:10;28.20;54.00
25732;DHT22;13585;50.864;4.406;2022-08-01T08:35:35;28.20;54.00
25732;DHT22;13585;50.864;4.406;2022-08-01T08:38:01;28.20;54.00
25732;DHT22;13585;50.864;4.406;2022-08-01T08:40:30;28.20;54.00
25732;DHT22;13585;50.864;4.406;2022-08-01T08:42:58;28.20;54.00
25732;DHT22;13585;50.864;4.406;2022-08-01T08:45:25;28.20;53.90
25732;DHT22;13585;50.864;4.406;2022-08-01T08:47:52;28.20;53.80
25732;DHT22;13585;50.864;4.406;2022-08-01T08:50:19;28.20;53.80
25732;DHT22;13585;50.864;4.406;2022-08-01T08:52:46;28.30;53.90
25732;DHT22;13585;50.864;4.406;2022-08-01T08:55:15;28.30;53.90
25732;DHT22;13585;50.864;4.406;2022-08-01T08:57:43;28.30;53.90
25732;DHT22;13585;50.864;4.406;2022-08-01T09:00:10;28.30;53.80
25732;DHT22;13585;50.864;4.406;2022-08-01T09:02:41;28.30;53.80
25732;DHT22;13585;50.864;4.406;2022-08-01T09:05:08;28.30;53.80
25732;DHT22;13585;50.864;4.406;2022-08-01T09:07:33;28.30;53.70
25732;DHT22;13585;50.864;4.406;2022-08-01T09:09:59;28.30;53.70
25732;DHT22;13585;50.864;4.406;2022-08-01T09:12:25;28.30;53.70
25732;DHT22;13585;50.864;4.406;2022-08-01T09:14:50;28.30;53.60
25732;DHT22;13585;50.864;4.406;2022-08-01T09:17:19;28.30;53.60
25732;DHT22;13585;50.864;4.406;2022-08-01T09:19:46;28.30;53.50
25732;DHT22;13585;50.864;4.406;2022-08-01T09:22:18;28.30;53.50
25732;DHT22;13585;50.864;4.406;2022-08-01T09:25:06;28.30;53.40
25732;DHT22;13585;50.864;4.406;2022-08-01T09:27:32;28.30;53.50
25732;DHT22;13585;50.864;4.406;2022-08-01T09:32:35;28.30;53.30
25732;DHT22;13585;50.864;4.406;2022-08-01T09:37:48;28.30;53.30
25732;DHT22;13585;50.864;4.406;2022-08-01T09:40:14;28.30;53.20
25732;DHT22;13585;50.864;4.406;2022-08-01T09:42:39;28.30;53.10
25732;DHT22;13585;50.864;4.406;2022-08-01T09:45:05;28.30;53.10
25732;DHT22;13585;50.864;4.406;2022-08-01T09:47:40;28.30;53.10
25732;DHT22;13585;50.864;4.406;2022-08-01T09:50:06;28.30;53.10
25732;DHT22;13585;50.864;4.406;2022-08-01T09:52:32;28.30;53.00
25732;DHT22;13585;50.864;4.406;2022-08-01T09:55:04;28.40;53.10
25732;DHT22;13585;50.864;4.406;2022-08-01T09:57:30;28.30;53.00
25732;DHT22;13585;50.864;4.406;2022-08-01T09:59:58;28.30;53.00
25732;DHT22;13585;50.864;4.406;2022-08-01T10:02:37;28.30;52.90
25732;DHT22;13585;50.864;4.406;2022-08-01T10:05:05;28.30;52.90
25732;DHT22;13585;50.864;4.406;2022-08-01T10:07:31;28.40;53.00
25732;DHT22;13585;50.864;4.406;2022-08-01T10:10:17;28.40;52.90
25732;DHT22;13585;50.864;4.406;2022-08-01T10:12:43;28.30;53.00
25732;DHT22;13585;50.864;4.406;2022-08-01T10:15:09;28.40;52.80
25732;DHT22;13585;50.864;4.406;2022-08-01T10:17:39;28.40;52.80
25732;DHT22;13585;50.864;4.406;2022-08-01T10:20:06;28.40;52.80
25732;DHT22;13585;50.864;4.406;2022-08-01T10:22:33;28.40;52.70
25732;DHT22;13585;50.864;4.406;2022-08-01T10:25:02;28.40;52.70
25732;DHT22;13585;50.864;4.406;2022-08-01T10:27:29;28.40;52.70
25732;DHT22;13585;50.864;4.406;2022-08-01T10:29:59;28.40;52.60
25732;DHT22;13585;50.864;4.406;2022-08-01T10:32:29;28.40;52.60
25732;DHT22;13585;50.864;4.406;2022-08-01T10:34:55;28.40;52.50
25732;DHT22;13585;50.864;4.406;2022-08-01T10:37:22;28.40;52.60
25732;DHT22;13585;50.864;4.406;2022-08-01T10:39:50;28.40;52.50
25732;DHT22;13585;50.864;4.406;2022-08-01T10:42:17;28.40;52.50
25732;DHT22;13585;50.864;4.406;2022-08-01T10:44:43;28.40;52.50
25732;DHT22;13585;50.864;4.406;2022-08-01T10:47:18;28.40;52.40
25732;DHT22;13585;50.864;4.406;2022-08-01T10:49:56;28.40;52.50
25732;DHT22;13585;50.864;4.406;2022-08-01T10:52:26;28.40;52.50
25732;DHT22;13585;50.864;4.406;2022-08-01T10:55:06;28.40;52.40
25732;DHT22;13585;50.864;4.406;2022-08-01T10:57:45;28.40;52.50
25732;DHT22;13585;50.864;4.406;2022-08-01T11:00:18;28.40;52.40
25732;DHT22;13585;50.864;4.406;2022-08-01T11:03:02;28.40;52.40
25732;DHT22;13585;50.864;4.406;2022-08-01T11:05:33;28.40;52.30
25732;DHT22;13585;50.864;4.406;2022-08-01T11:08:10;28.40;52.30
25732;DHT22;13585;50.864;4.406;2022-08-01T11:10:46;28.40;52.30
25732;DHT22;13585;50.864;4.406;2022-08-01T11:13:13;28.40;52.10
25732;DHT22;13585;50.864;4.406;2022-08-01T11:15:40;28.40;52.10
25732;DHT22;13585;50.864;4.406;2022-08-01T11:21:01;28.40;52.10
25732;DHT22;13585;50.864;4.406;2022-08-01T11:23:30;28.40;52.00
25732;DHT22;13585;50.864;4.406;2022-08-01T11:26:13;28.40;51.90
25732;DHT22;13585;50.864;4.406;2022-08-01T11:28:40;28.50;51.90
25732;DHT22;13585;50.864;4.406;2022-08-01T11:38:42;28.40;51.80
25732;DHT22;13585;50.864;4.406;2022-08-01T11:41:17;28.50;51.80
25732;DHT22;13585;50.864;4.406;2022-08-01T11:46:56;28.50;51.80
25732;DHT22;13585;50.864;4.406;2022-08-01T11:52:09;28.50;51.60
25732;DHT22;13585;50.864;4.406;2022-08-01T11:54:46;28.50;51.50
25732;DHT22;13585;50.864;4.406;2022-08-01T11:57:18;28.50;51.50
25732;DHT22;13585;50.864;4.406;2022-08-01T11:59:50;28.50;51.50
25732;DHT22;13585;50.864;4.406;2022-08-01T12:04:52;28.50;51.40
25732;DHT22;13585;50.864;4.406;2022-08-01T12:07:22;28.50;51.40
25732;DHT22;13585;50.864;4.406;2022-08-01T12:09:48;28.50;51.30
25732;DHT22;13585;50.864;4.406;2022-08-01T12:12:21;28.50;51.30
25732;DHT22;13585;50.864;4.406;2022-08-01T12:14:57;28.50;51.30
25732;DHT22;13585;50.864;4.406;2022-08-01T12:17:34;28.50;51.40
25732;DHT22;13585;50.864;4.406;2022-08-01T12:20:01;28.50;51.30
25732;DHT22;13585;50.864;4.406;2022-08-01T12:22:27;28.60;51.30
25732;DHT22;13585;50.864;4.406;2022-08-01T12:24:53;28.60;51.40
25732;DHT22;13585;50.864;4.406;2022-08-01T12:27:27;28.60;51.40
25732;DHT22;13585;50.864;4.406;2022-08-01T12:29:53;28.60;51.50
25732;DHT22;13585;50.864;4.406;2022-08-01T12:34:53;28.60;51.60
25732;DHT22;13585;50.864;4.406;2022-08-01T12:37:19;28.60;52.40
25732;DHT22;13585;50.864;4.406;2022-08-01T12:39:46;28.60;52.60
25732;DHT22;13585;50.864;4.406;2022-08-01T12:42:12;28.60;53.10
25732;DHT22;13585;50.864;4.406;2022-08-01T12:44:39;28.70;53.50
25732;DHT22;13585;50.864;4.406;2022-08-01T12:47:06;28.60;53.40
25732;DHT22;13585;50.864;4.406;2022-08-01T12:49:35;28.70;53.40
25732;DHT22;13585;50.864;4.406;2022-08-01T12:52:02;28.70;53.10
25732;DHT22;13585;50.864;4.406;2022-08-01T12:54:28;28.70;52.90
25732;DHT22;13585;50.864;4.406;2022-08-01T12:56:54;28.70;52.70
25732;DHT22;13585;50.864;4.406;2022-08-01T12:59:24;28.70;52.60
25732;DHT22;13585;50.864;4.406;2022-08-01T13:01:54;28.70;52.60
25732;DHT22;13585;50.864;4.406;2022-08-01T13:04:23;28.70;52.50
25732;DHT22;13585;50.864;4.406;2022-08-01T13:06:53;28.70;52.40
25732;DHT22;13585;50.864;4.406;2022-08-01T13:09:19;28.70;52.40
25732;DHT22;13585;50.864;4.406;2022-08-01T13:11:45;28.70;52.30
25732;DHT22;13585;50.864;4.406;2022-08-01T13:14:28;28.70;52.20
25732;DHT22;13585;50.864;4.406;2022-08-01T13:16:54;28.70;52.20
25732;DHT22;13585;50.864;4.406;2022-08-01T13:19:20;28.70;52.00
25732;DHT22;13585;50.864;4.406;2022-08-01T13:21:56;28.70;52.00
25732;DHT22;13585;50.864;4.406;2022-08-01T13:24:26;28.70;52.00
25732;DHT22;13585;50.864;4.406;2022-08-01T13:26:53;28.70;51.80
25732;DHT22;13585;50.864;4.406;2022-08-01T13:29:36;28.70;51.70
25732;DHT22;13585;50.864;4.406;2022-08-01T13:32:17;28.70;51.60
25732;DHT22;13585;50.864;4.406;2022-08-01T13:34:43;28.70;51.50
25732;DHT22;13585;50.864;4.406;2022-08-01T13:37:09;28.70;51.30
25732;DHT22;13585;50.864;4.406;2022-08-01T13:39:35;28.70;51.20
25732;DHT22;13585;50.864;4.406;2022-08-01T13:42:07;28.70;51.10
25732;DHT22;13585;50.864;4.406;2022-08-01T13:44:32;28.80;51.10
25732;DHT22;13585;50.864;4.406;2022-08-01T13:46:58;28.80;50.80
25732;DHT22;13585;50.864;4.406;2022-08-01T13:49:24;28.80;50.80
25732;DHT22;13585;50.864;4.406;2022-08-01T13:51:50;28.80;50.90
25732;DHT22;13585;50.864;4.406;2022-08-01T13:54:16;28.70;50.80
25732;DHT22;13585;50.864;4.406;2022-08-01T13:56:42;28.70;50.70
25732;DHT22;13585;50.864;4.406;2022-08-01T13:59:07;28.70;50.60
25732;DHT22;13585;50.864;4.406;2022-08-01T14:01:34;28.70;50.60
25732;DHT22;13585;50.864;4.406;2022-08-01T14:04:00;28.70;50.50
25732;DHT22;13585;50.864;4.406;2022-08-01T14:06:26;28.70;50.40
25732;DHT22;13585;50.864;4.406;2022-08-01T14:08:52;28.70;50.40
25732;DHT22;13585;50.864;4.406;2022-08-01T14:11:18;28.70;50.40
25732;DHT22;13585;50.864;4.406;2022-08-01T14:13:44;28.70;50.30
25732;DHT22;13585;50.864;4.406;2022-08-01T14:16:09;28.70;50.30
25732;DHT22;13585;50.864;4.406;2022-08-01T14:18:35;28.70;50.30
25732;DHT22;13585;50.864;4.406;2022-08-01T14:21:01;28.70;50.30
25732;DHT22;13585;50.864;4.406;2022-08-01T14:23:27;28.80;50.40
25732;DHT22;13585;50.864;4.406;2022-08-01T14:25:52;28.70;50.20
25732;DHT22;13585;50.864;4.406;2022-08-01T14:28:18;28.70;50.10
25732;DHT22;13585;50.864;4.406;2022-08-01T14:30:44;28.80;50.10
25732;DHT22;13585;50.864;4.406;2022-08-01T14:33:11;28.80;50.10
25732;DHT22;13585;50.864;4.406;2022-08-01T14:35:37;28.70;50.00
25732;DHT22;13585;50.864;4.406;2022-08-01T14:38:03;28.80;50.00
25732;DHT22;13585;50.864;4.406;2022-08-01T14:40:32;28.80;49.90
25732;DHT22;13585;50.864;4.406;2022-08-01T14:42:58;28.80;50.20
25732;DHT22;13585;50.864;4.406;2022-08-01T14:45:30;28.80;49.70
25732;DHT22;13585;50.864;4.406;2022-08-01T14:47:59;28.80;49.60
25732;DHT22;13585;50.864;4.406;2022-08-01T14:50:25;28.80;49.60
25732;DHT22;13585;50.864;4.406;2022-08-01T14:52:53;28.80;49.50
25732;DHT22;13585;50.864;4.406;2022-08-01T14:55:19;28.80;49.40
25732;DHT22;13585;50.864;4.406;2022-08-01T14:57:49;28.80;49.40
25732;DHT22;13585;50.864;4.406;2022-08-01T15:00:15;28.80;49.40
25732;DHT22;13585;50.864;4.406;2022-08-01T15:02:41;28.80;49.30
25732;DHT22;13585;50.864;4.406;2022-08-01T15:05:08;28.80;49.30
25732;DHT22;13585;50.864;4.406;2022-08-01T15:07:35;28.80;49.30
25732;DHT22;13585;50.864;4.406;2022-08-01T15:10:01;28.80;49.20
25732;DHT22;13585;50.864;4.406;2022-08-01T15:12:27;28.80;49.10
25732;DHT22;13585;50.864;4.406;2022-08-01T15:14:53;28.80;49.10
25732;DHT22;13585;50.864;4.406;2022-08-01T15:17:24;28.80;49.00
25732;DHT22;13585;50.864;4.406;2022-08-01T15:19:54;28.80;48.90
25732;DHT22;13585;50.864;4.406;2022-08-01T15:22:21;28.80;48.80
25732;DHT22;13585;50.864;4.406;2022-08-01T15:24:48;28.80;48.80
25732;DHT22;13585;50.864;4.406;2022-08-01T15:27:14;28.90;48.90
25732;DHT22;13585;50.864;4.406;2022-08-01T15:29:40;28.80;48.90
25732;DHT22;13585;50.864;4.406;2022-08-01T15:32:07;28.90;48.90
25732;DHT22;13585;50.864;4.406;2022-08-01T15:34:34;28.80;48.80
25732;DHT22;13585;50.864;4.406;2022-08-01T15:37:00;28.90;48.70
25732;DHT22;13585;50.864;4.406;2022-08-01T15:39:26;28.90;48.70
25732;DHT22;13585;50.864;4.406;2022-08-01T15:41:52;28.90;48.70
25732;DHT22;13585;50.864;4.406;2022-08-01T15:44:18;28.90;48.70
25732;DHT22;13585;50.864;4.406;2022-08-01T15:46:46;28.90;48.60
25732;DHT22;13585;50.864;4.406;2022-08-01T15:49:12;28.90;48.60
25732;DHT22;13585;50.864;4.406;2022-08-01T15:51:38;28.90;48.50
25732;DHT22;13585;50.864;4.406;2022-08-01T15:54:04;28.90;48.50
25732;DHT22;13585;50.864;4.406;2022-08-01T15:56:35;28.80;48.50
25732;DHT22;13585;50.864;4.406;2022-08-01T15:59:01;28.90;48.40
25732;DHT22;13585;50.864;4.406;2022-08-01T16:01:27;28.90;48.40
25732;DHT22;13585;50.864;4.406;2022-08-01T16:03:54;28.90;48.30
25732;DHT22;13585;50.864;4.406;2022-08-01T16:06:21;28.90;48.00
25732;DHT22;13585;50.864;4.406;2022-08-01T16:08:46;28.90;47.70
25732;DHT22;13585;50.864;4.406;2022-08-01T16:11:16;28.90;47.30